Time;durP1;ratioP1;P1;durP2;ratioP2;P2;SDS_P1;SDS_P2;PMS_P1;PMS_P2;Temp;Humidity;BMP_temperature;BMP_pressure;BME280_temperature;BME280_humidity;BME280_pressure;Samples;Min_cycle;Max_cycle;Signal;HPM_P1;HPM_P2
2023/01/14 00:00:11;;;;;;;14.35;3.80;;;;;;;7.25;100.00;101171.03;4992427;28;20085;-87
2023/01/14 00:02:37;;;;;;;17.92;3.65;;;;;;;7.18;100.00;101156.91;4991648;28;20042;-86
2023/01/14 00:05:02;;;;;;;25.25;5.72;;;;;;;7.21;100.00;101168.16;4989733;28;20030;-85
2023/01/14 00:07:28;;;;;;;19.92;3.22;;;;;;;7.25;100.00;101179.38;4990866;28;20057;-85
2023/01/14 00:09:53;;;;;;;15.75;3.88;;;;;;;7.26;100.00;101169.88;4986452;28;20042;-84
2023/01/14 00:12:19;;;;;;;21.98;3.53;;;;;;;7.22;100.00;101164.19;5012954;28;20026;-84
2023/01/14 00:14:45;;;;;;;25.70;4.82;;;;;;;7.21;100.00;101158.97;4985789;28;20026;-86
2023/01/14 00:17:10;;;;;;;18.95;3.03;;;;;;;7.29;100.00;101172.81;5005860;28;20402;-87
2023/01/14 00:19:37;;;;;;;20.65;3.30;;;;;;;7.17;100.00;101174.75;4988751;28;20033;-86
2023/01/14 00:22:03;;;;;;;22.65;5.03;;;;;;;7.12;100.00;101164.66;5007103;28;20022;-87
2023/01/14 00:24:28;;;;;;;21.73;4.10;;;;;;;7.19;100.00;101192.75;4990418;28;20039;-86
2023/01/14 00:26:55;;;;;;;25.05;5.32;;;;;;;7.22;100.00;101196.81;4987583;28;20022;-86
2023/01/14 00:29:31;;;;;;;21.73;3.50;;;;;;;7.24;100.00;101195.28;4988764;28;20038;-86
2023/01/14 00:31:59;;;;;;;14.18;3.92;;;;;;;7.27;100.00;101189.03;4989187;28;20057;-86
2023/01/14 00:34:27;;;;;;;17.52;3.30;;;;;;;7.25;100.00;101184.97;4987636;28;20711;-85
2023/01/14 00:36:53;;;;;;;21.10;3.60;;;;;;;7.24;100.00;101183.34;4990349;28;20026;-85
2023/01/14 00:39:18;;;;;;;22.48;4.35;;;;;;;7.25;100.00;101196.94;4988031;28;20037;-87
2023/01/14 00:41:44;;;;;;;17.98;4.28;;;;;;;7.25;100.00;101187.75;4991369;28;20386;-86
2023/01/14 00:44:10;;;;;;;26.05;4.55;;;;;;;7.19;100.00;101178.81;4988851;28;20031;-87
2023/01/14 00:46:37;;;;;;;12.52;3.28;;;;;;;7.32;100.00;101201.91;4995067;28;20381;-85
2023/01/14 00:49:04;;;;;;;16.50;4.03;;;;;;;7.35;100.00;101217.09;4989033;28;20030;-86
2023/01/14 00:51:31;;;;;;;23.45;4.82;;;;;;;7.26;100.00;101214.44;4985885;28;20495;-86
2023/01/14 00:53:58;;;;;;;24.60;3.75;;;;;;;7.29;100.00;101210.94;4995265;28;20026;-86
2023/01/14 00:56:23;;;;;;;25.02;4.93;;;;;;;7.32;100.00;101207.47;4986715;28;20050;-87
2023/01/14 00:58:49;;;;;;;28.17;4.43;;;;;;;7.36;100.00;101207.56;4991619;28;20153;-86
2023/01/14 01:01:16;;;;;;;24.13;3.78;;;;;;;7.25;100.00;101201.66;5001873;28;20427;-88
2023/01/14 01:03:44;;;;;;;37.72;6.32;;;;;;;7.35;100.00;101217.91;5003531;28;20026;-86
2023/01/14 01:06:11;;;;;;;28.75;4.05;;;;;;;7.31;100.00;101211.41;4986796;28;20030;-86
2023/01/14 01:08:37;;;;;;;23.15;5.35;;;;;;;7.18;100.00;101193.88;5007537;28;20026;-86
2023/01/14 01:11:03;;;;;;;25.58;5.53;;;;;;;7.34;100.00;101216.31;4987471;28;20068;-86
2023/01/14 01:13:28;;;;;;;22.52;3.95;;;;;;;7.32;100.00;101224.19;4988601;28;20117;-87
2023/01/14 01:15:59;;;;;;;31.73;5.60;;;;;;;7.34;100.00;101227.44;5006767;28;20177;-86
2023/01/14 01:18:25;;;;;;;18.40;4.13;;;;;;;7.34;100.00;101224.66;5004597;28;20026;-86
2023/01/14 01:20:50;;;;;;;19.27;3.70;;;;;;;7.26;100.00;101217.22;4994268;28;20052;-86
2023/01/14 01:23:16;;;;;;;27.55;4.18;;;;;;;7.28;100.00;101217.69;4990466;28;20030;-86
2023/01/14 01:25:42;;;;;;;34.55;5.93;;;;;;;7.23;100.00;101237.38;4987530;28;20675;-86
2023/01/14 01:28:08;;;;;;;19.70;3.72;;;;;;;7.25;100.00;101229.50;5002020;28;20034;-87
2023/01/14 01:30:33;;;;;;;18.67;3.22;;;;;;;7.25;100.00;101235.06;4989143;28;20469;-86
2023/01/14 01:33:00;;;;;;;17.42;3.75;;;;;;;7.18;100.00;101229.28;4986516;28;20023;-87
2023/01/14 01:35:26;;;;;;;20.50;3.67;;;;;;;7.17;100.00;101238.78;4987398;28;20459;-86
2023/01/14 01:37:51;;;;;;;17.92;3.92;;;;;;;7.15;100.00;101228.00;5001583;28;20026;-87
2023/01/14 01:40:17;;;;;;;16.13;3.03;;;;;;;7.19;100.00;101237.28;4979109;28;20038;-86
2023/01/14 01:42:55;;;;;;;15.15;3.75;;;;;;;7.10;100.00;101223.47;4994770;28;20034;-87
2023/01/14 01:45:20;;;;;;;17.80;2.88;;;;;;;7.11;100.00;101247.34;4996015;28;20047;-87
2023/01/14 01:47:54;;;;;;;23.15;3.53;;;;;;;7.02;100.00;101227.19;4994259;28;20035;-87
2023/01/14 01:50:20;;;;;;;22.48;4.88;;;;;;;7.07;100.00;101235.28;4982187;28;20054;-87
2023/01/14 01:52:46;;;;;;;21.85;4.18;;;;;;;7.00;100.00;101235.06;5000660;28;20030;-86
2023/01/14 01:55:12;;;;;;;25.73;3.90;;;;;;;7.01;100.00;101225.53;4978943;28;20430;-86
2023/01/14 01:57:38;;;;;;;18.73;3.45;;;;;;;6.97;100.00;101230.16;4979635;28;20392;-86
2023/01/14 02:00:07;;;;;;;19.58;4.55;;;;;;;6.89;100.00;101217.16;4983725;28;20026;-86
2023/01/14 02:02:33;;;;;;;23.67;4.22;;;;;;;6.78;100.00;101216.78;4986197;28;20125;-87
2023/01/14 02:04:58;;;;;;;24.02;3.85;;;;;;;6.98;100.00;101231.81;4992076;28;20502;-86
2023/01/14 02:07:25;;;;;;;19.20;4.05;;;;;;;6.92;100.00;101238.75;4997219;28;20034;-86
2023/01/14 02:09:58;;;;;;;23.75;4.00;;;;;;;6.85;100.00;101244.03;4991249;28;20140;-86
2023/01/14 02:12:45;;;;;;;25.02;5.38;;;;;;;7.08;100.00;101244.44;4981964;28;20557;-87
2023/01/14 02:15:28;;;;;;;18.30;3.33;;;;;;;7.00;100.00;101240.63;4986447;28;20022;-86
2023/01/14 02:18:12;;;;;;;24.30;5.15;;;;;;;6.89;100.00;101239.41;4996988;28;20041;-86
2023/01/14 02:20:50;;;;;;;22.27;5.30;;;;;;;6.78;100.00;101221.53;5002661;28;20141;-86
2023/01/14 02:23:43;;;;;;;18.98;5.43;;;;;;;6.94;100.00;101230.88;4987186;28;20470;-86
2023/01/14 02:26:40;;;;;;;17.52;3.13;;;;;;;6.88;100.00;101233.03;4988467;28;20038;-86
2023/01/14 02:29:33;;;;;;;24.20;4.82;;;;;;;6.81;100.00;101230.03;4997512;28;20398;-87
2023/01/14 02:32:26;;;;;;;18.63;3.60;;;;;;;6.88;100.00;101221.09;5000232;28;20045;-86
2023/01/14 02:35:12;;;;;;;;;;;;;;;6.85;100.00;101207.88;4992509;28;20034;-86
2023/01/14 02:37:56;;;;;;;14.60;2.63;;;;;;;6.90;100.00;101204.88;4988981;28;20289;-86
2023/01/14 02:40:47;;;;;;;19.20;4.32;;;;;;;6.88;100.00;101194.09;4988554;28;20030;-87
2023/01/14 02:46:18;;;;;;;22.38;5.38;;;;;;;6.68;100.00;101200.53;4989992;28;20561;-86
2023/01/14 02:48:45;;;;;;;18.58;3.60;;;;;;;6.67;100.00;101199.72;4989648;28;20034;-87
2023/01/14 02:51:11;;;;;;;20.92;3.45;;;;;;;6.50;100.00;101172.09;5010078;28;20026;-86
2023/01/14 02:53:37;;;;;;;21.88;4.47;;;;;;;6.61;100.00;101194.72;4997934;28;20057;-86
2023/01/14 02:56:03;;;;;;;13.30;2.70;;;;;;;6.65;100.00;101190.91;4990413;28;20421;-88
2023/01/14 02:58:31;;;;;;;18.92;4.35;;;;;;;6.69;100.00;101202.97;5003665;28;20026;-86
2023/01/14 03:01:15;;;;;;;22.95;4.30;;;;;;;6.57;100.00;101177.09;5007329;28;20030;-86
2023/01/14 03:04:04;;;;;;;15.98;3.85;;;;;;;6.59;100.00;101175.59;4987879;28;21644;-86
2023/01/14 03:06:52;;;;;;;26.25;2.67;;;;;;;6.53;100.00;101171.41;4989377;28;20030;-86
2023/01/14 03:09:37;;;;;;;25.42;5.18;;;;;;;6.55;100.00;101152.41;4996479;28;20097;-86
2023/01/14 03:12:24;;;;;;;28.08;5.55;;;;;;;6.49;100.00;101170.44;5006491;28;20030;-87
2023/01/14 03:15:00;;;;;;;17.58;2.90;;;;;;;6.35;100.00;101158.84;5006116;28;20815;-86
2023/01/14 03:17:50;;;;;;;13.50;2.72;;;;;;;6.46;100.00;101162.81;4989090;28;20631;-87
2023/01/14 03:20:27;;;;;;;18.92;3.47;;;;;;;6.46;100.00;101157.25;4989868;28;20040;-86
2023/01/14 03:22:57;;;;;;;18.95;3.15;;;;;;;6.53;100.00;101160.28;4998925;28;20109;-86
2023/01/14 03:25:25;;;;;;;20.20;3.65;;;;;;;6.50;100.00;101158.19;5002272;28;20125;-87
2023/01/14 03:27:54;;;;;;;10.80;3.00;;;;;;;6.45;100.00;101155.59;4985772;28;20092;-86
2023/01/14 03:30:37;;;;;;;24.52;3.60;;;;;;;6.39;100.00;101143.91;4991645;28;20030;-86
2023/01/14 03:33:08;;;;;;;25.27;5.40;;;;;;;6.42;100.00;101142.41;4998657;28;20041;-87
2023/01/14 03:35:37;;;;;;;32.13;5.38;;;;;;;6.23;100.00;101132.59;5006343;28;20422;-86
2023/01/14 03:38:39;;;;;;;16.40;3.35;;;;;;;6.34;100.00;101143.31;4987121;28;20111;-86
2023/01/14 03:41:07;;;;;;;22.27;4.15;;;;;;;6.29;100.00;101142.38;4981564;28;20410;-86
2023/01/14 03:43:51;;;;;;;32.17;5.35;;;;;;;6.24;100.00;101156.50;4983079;28;20034;-86
2023/01/14 03:46:17;;;;;;;24.92;4.00;;;;;;;6.20;100.00;101150.00;5000192;28;20042;-86
2023/01/14 03:48:42;;;;;;;20.02;4.13;;;;;;;6.37;100.00;101154.56;5001971;28;20395;-87
2023/01/14 03:51:26;;;;;;;29.77;5.80;;;;;;;6.27;100.00;101158.56;4986642;28;20030;-87
2023/01/14 03:54:06;;;;;;;28.63;4.90;;;;;;;6.37;100.00;101154.56;5002886;28;20493;-86
2023/01/14 03:56:48;;;;;;;26.92;4.75;;;;;;;6.27;100.00;101144.66;4992267;28;20033;-87
2023/01/14 03:59:20;;;;;;;29.90;5.20;;;;;;;6.29;100.00;101144.34;4981287;28;20030;-86
2023/01/14 04:01:52;;;;;;;19.50;4.10;;;;;;;6.26;100.00;101137.50;5001772;28;20037;-86
2023/01/14 04:04:19;;;;;;;20.60;5.15;;;;;;;6.02;100.00;101113.19;4992707;28;20085;-86
2023/01/14 04:06:45;;;;;;;23.23;4.72;;;;;;;5.99;100.00;101124.19;4987919;28;20545;-86
2023/01/14 04:09:10;;;;;;;30.05;8.13;;;;;;;6.21;100.00;101132.13;4988577;28;20030;-86
2023/01/14 04:11:36;;;;;;;22.38;4.10;;;;;;;6.13;100.00;101130.25;4989320;28;20042;-86
2023/01/14 04:16:47;;;;;;;15.48;4.07;;;;;;;6.22;100.00;101122.66;4993595;28;20037;-87
2023/01/14 04:19:12;;;;;;;28.98;4.40;;;;;;;6.09;100.00;101118.19;4987371;28;20022;-86
2023/01/14 04:21:38;;;;;;;25.40;4.57;;;;;;;6.05;100.00;101095.00;5008915;28;20065;-86
2023/01/14 04:24:03;;;;;;;25.23;5.68;;;;;;;6.04;100.00;101115.63;4993042;28;20030;-86
2023/01/14 04:26:29;;;;;;;26.58;7.03;;;;;;;6.01;100.00;101103.25;4998329;28;20077;-87
2023/01/14 04:28:54;;;;;;;16.13;3.97;;;;;;;5.90;100.00;101086.16;5014565;28;20497;-86
2023/01/14 04:31:21;;;;;;;24.77;5.70;;;;;;;6.00;100.00;101098.03;4989354;28;20065;-86
2023/01/14 04:33:46;;;;;;;25.15;5.97;;;;;;;5.95;100.00;101081.56;4990014;28;20018;-86
2023/01/14 04:36:12;;;;;;;21.38;4.68;;;;;;;6.04;100.00;101105.31;4985175;28;20026;-86
2023/01/14 04:38:37;;;;;;;28.38;5.25;;;;;;;5.94;100.00;101094.59;5002892;28;20049;-85
2023/01/14 04:41:02;;;;;;;29.88;4.43;;;;;;;5.98;100.00;101101.13;4988416;28;20113;-86
2023/01/14 04:43:28;;;;;;;32.47;4.85;;;;;;;5.96;100.00;101097.06;4989425;28;20422;-86
2023/01/14 04:45:54;;;;;;;24.95;5.03;;;;;;;5.95;100.00;101095.47;4982972;28;20107;-86
2023/01/14 04:48:21;;;;;;;18.60;5.00;;;;;;;5.86;100.00;101087.16;4989878;28;20030;-86
2023/01/14 04:50:50;;;;;;;38.97;7.65;;;;;;;5.88;100.00;101080.13;4987105;28;20060;-86
2023/01/14 04:53:17;;;;;;;25.45;6.68;;;;;;;5.73;100.00;101077.97;5000076;28;20080;-87
2023/01/14 04:55:45;;;;;;;37.92;7.15;;;;;;;5.90;100.00;101071.44;4990526;28;20279;-86
2023/01/14 04:58:13;;;;;;;22.27;5.82;;;;;;;5.70;100.00;101068.34;5001542;28;20049;-86
2023/01/14 05:00:39;;;;;;;20.83;4.95;;;;;;;5.72;100.00;101056.91;4992157;28;20041;-86
2023/01/14 05:03:07;;;;;;;27.02;5.82;;;;;;;5.81;100.00;101048.50;4993868;28;20022;-86
2023/01/14 05:05:33;;;;;;;29.63;7.78;;;;;;;5.68;100.00;101044.84;4985909;28;20030;-86
2023/01/14 05:07:59;;;;;;;22.63;5.40;;;;;;;5.88;100.00;101048.72;4991680;28;20399;-85
2023/01/14 05:10:26;;;;;;;20.65;5.78;;;;;;;5.52;100.00;101021.63;4989007;28;20042;-85
2023/01/14 05:12:58;;;;;;;29.23;5.63;;;;;;;5.69;100.00;101052.00;4989860;28;20026;-86
2023/01/14 05:15:24;;;;;;;32.33;5.83;;;;;;;5.72;100.00;101039.44;4980161;28;20488;-85
2023/01/14 05:17:49;;;;;;;26.77;5.75;;;;;;;5.67;100.00;101029.31;5002767;28;20439;-85
2023/01/14 05:20:15;;;;;;;36.33;7.47;;;;;;;5.65;100.00;101024.13;4987077;28;20030;-86
2023/01/14 05:22:41;;;;;;;32.28;7.53;;;;;;;5.65;100.00;101014.97;4991367;28;20457;-87
2023/01/14 05:25:07;;;;;;;26.80;6.90;;;;;;;5.64;100.00;101016.13;4990742;28;20038;-86
2023/01/14 05:27:33;;;;;;;34.17;8.32;;;;;;;5.60;100.00;101001.31;4994429;28;20116;-85
2023/01/14 05:29:58;;;;;;;29.00;8.52;;;;;;;5.65;100.00;100987.19;4988738;28;20125;-85
2023/01/14 05:32:24;;;;;;;59.08;11.52;;;;;;;5.70;100.00;100995.34;4975336;28;20170;-85
2023/01/14 05:34:49;;;;;;;39.65;10.35;;;;;;;5.74;100.00;100985.16;4977479;28;20455;-85
2023/01/14 05:37:15;;;;;;;33.55;7.53;;;;;;;5.95;100.00;100985.13;4980046;28;20027;-84
2023/01/14 05:39:40;;;;;;;28.30;7.80;;;;;;;5.81;100.00;100979.03;4981101;28;20022;-84
2023/01/14 05:47:33;;;;;;;38.97;10.15;;;;;;;5.86;100.00;100943.53;4981910;28;20513;-85
2023/01/14 05:49:59;;;;;;;38.90;7.72;;;;;;;5.88;100.00;100955.13;4991862;28;20116;-85
2023/01/14 05:52:24;;;;;;;32.97;6.55;;;;;;;5.90;100.00;100950.03;4992292;28;20034;-86
2023/01/14 05:54:49;;;;;;;34.55;8.82;;;;;;;5.70;100.00;100931.44;4980077;28;20031;-85
2023/01/14 05:57:15;;;;;;;41.50;7.90;;;;;;;5.77;100.00;100944.78;4977677;28;20089;-86
2023/01/14 05:59:41;;;;;;;30.60;7.25;;;;;;;5.59;100.00;100914.41;4982669;28;20046;-84
2023/01/14 06:07:54;;;;;;;37.30;6.55;;;;;;;5.64;100.00;100905.84;4959380;28;20053;-85
2023/01/14 06:10:24;;;;;;;31.83;8.75;;;;;;;5.59;100.00;100883.06;4980431;28;20495;-85
2023/01/14 06:13:03;;;;;;;63.28;9.35;;;;;;;5.66;100.00;100900.78;4981313;28;20549;-85
2023/01/14 06:15:34;;;;;;;43.17;7.80;;;;;;;5.62;100.00;100887.94;5000584;28;20117;-85
2023/01/14 06:18:10;;;;;;;30.23;7.00;;;;;;;5.61;100.00;100876.00;4987364;28;20486;-87
2023/01/14 06:20:36;;;;;;;46.42;10.27;;;;;;;5.55;100.00;100871.03;4983027;28;20025;-88
2023/01/14 06:23:03;;;;;;;50.00;6.93;;;;;;;5.56;100.00;100844.88;4982705;28;20049;-88
2023/01/14 06:25:29;;;;;;;32.92;9.57;;;;;;;5.62;100.00;100851.81;4997357;28;20386;-89
2023/01/14 06:27:56;;;;;;;40.08;7.45;;;;;;;5.62;100.00;100849.84;4986746;28;20371;-86
2023/01/14 06:30:22;;;;;;;47.33;7.82;;;;;;;5.70;100.00;100848.13;5001586;28;20390;-86
2023/01/14 06:32:47;;;;;;;35.00;8.40;;;;;;;5.67;100.00;100834.94;4988147;28;20037;-86
2023/01/14 06:35:13;;;;;;;40.10;9.30;;;;;;;5.54;100.00;100822.19;5003527;28;20018;-86
2023/01/14 06:37:39;;;;;;;50.63;9.13;;;;;;;5.57;100.00;100825.09;4987586;28;20031;-86
2023/01/14 06:40:04;;;;;;;40.03;7.65;;;;;;;5.65;100.00;100838.06;4986449;28;20479;-86
2023/01/14 06:42:30;;;;;;;32.28;7.55;;;;;;;5.56;100.00;100823.47;4988669;28;20996;-87
2023/01/14 06:44:55;;;;;;;44.97;10.00;;;;;;;5.73;100.00;100835.53;4987179;28;20026;-87
2023/01/14 06:47:20;;;;;;;35.47;9.63;;;;;;;5.69;100.00;100807.63;4985856;28;20048;-86
2023/01/14 06:49:46;;;;;;;39.20;7.55;;;;;;;5.67;100.00;100821.88;4984601;28;20034;-87
2023/01/14 06:52:11;;;;;;;39.17;8.10;;;;;;;5.81;100.00;100817.94;4999349;28;20062;-86
2023/01/14 06:54:36;;;;;;;45.47;8.18;;;;;;;5.64;100.00;100807.88;4982916;28;20119;-88
2023/01/14 06:57:04;;;;;;;41.22;6.82;;;;;;;5.80;100.00;100805.22;4985227;28;20032;-86
2023/01/14 06:59:29;;;;;;;30.90;6.70;;;;;;;5.62;100.00;100805.44;4986769;28;20474;-87
2023/01/14 07:01:55;;;;;;;36.75;8.43;;;;;;;5.78;100.00;100791.66;4983197;28;20022;-86
2023/01/14 07:04:20;;;;;;;47.33;8.25;;;;;;;5.78;100.00;100783.34;4986994;28;20076;-86
2023/01/14 07:06:45;;;;;;;32.72;7.57;;;;;;;5.82;100.00;100775.94;4987020;28;20253;-86
2023/01/14 07:09:11;;;;;;;37.58;7.57;;;;;;;5.87;100.00;100772.09;5007820;28;20556;-86
2023/01/14 07:11:36;;;;;;;38.55;8.68;;;;;;;5.65;100.00;100749.22;4986822;28;20508;-87
2023/01/14 07:14:01;;;;;;;35.38;7.35;;;;;;;5.95;100.00;100756.50;4989598;28;20129;-87
2023/01/14 07:16:27;;;;;;;31.70;6.93;;;;;;;5.90;100.00;100755.56;4978703;28;20037;-87
2023/01/14 07:18:52;;;;;;;47.15;6.75;;;;;;;5.98;100.00;100756.59;4983034;28;20401;-88
2023/01/14 07:21:17;;;;;;;31.95;6.82;;;;;;;5.91;100.00;100756.34;4985955;28;20474;-89
2023/01/14 07:23:43;;;;;;;27.58;5.97;;;;;;;5.84;100.00;100737.50;4987328;28;20033;-88
2023/01/14 07:26:08;;;;;;;39.15;8.10;;;;;;;5.91;100.00;100750.81;4998287;28;20395;-89
2023/01/14 07:28:34;;;;;;;27.45;7.10;;;;;;;5.93;100.00;100736.56;5004018;28;20076;-88
2023/01/14 07:31:04;;;;;;;33.75;7.25;;;;;;;5.81;100.00;100735.41;5002347;28;20068;-88
2023/01/14 07:33:30;;;;;;;24.30;6.45;;;;;;;5.79;100.00;100704.41;4997566;28;20040;-88
2023/01/14 07:35:57;;;;;;;39.00;8.65;;;;;;;5.78;100.00;100705.56;4980804;28;20038;-88
2023/01/14 07:38:22;;;;;;;25.10;6.15;;;;;;;5.88;100.00;100712.59;4985309;28;20038;-88
2023/01/14 07:40:48;;;;;;;34.10;7.07;;;;;;;5.93;100.00;100714.34;4981221;28;20458;-88
2023/01/14 07:43:13;;;;;;;30.73;7.15;;;;;;;5.94;100.00;100700.09;4982914;28;20520;-88
2023/01/14 07:45:39;;;;;;;27.05;5.97;;;;;;;5.89;100.00;100706.69;4980114;28;20023;-88
2023/01/14 07:48:04;;;;;;;41.55;6.75;;;;;;;5.97;100.00;100681.97;4980884;28;20046;-87
2023/01/14 07:50:30;;;;;;;43.22;7.43;;;;;;;6.20;100.00;100680.25;4980422;28;20018;-80
2023/01/14 07:52:57;;;;;;;28.15;6.55;;;;;;;6.30;100.00;100671.41;5000110;28;20073;-85
2023/01/14 07:55:24;;;;;;;21.70;5.57;;;;;;;6.22;100.00;100664.03;4978654;28;20037;-83
2023/01/14 07:57:49;;;;;;;30.05;5.55;;;;;;;6.11;100.00;100654.56;4981871;28;20034;-83
2023/01/14 08:00:15;;;;;;;30.90;6.82;;;;;;;5.93;100.00;100640.13;4985517;28;20063;-83
2023/01/14 08:02:41;;;;;;;21.42;5.97;;;;;;;6.01;100.00;100632.84;4973537;28;20030;-83
2023/01/14 08:05:06;;;;;;;38.40;5.90;;;;;;;6.04;100.00;100627.38;4987144;28;20483;-83
2023/01/14 08:07:32;;;;;;;40.88;6.57;;;;;;;5.98;100.00;100616.88;4987162;28;20042;-84
2023/01/14 08:09:57;;;;;;;29.73;6.80;;;;;;;5.88;100.00;100615.38;4990843;28;20062;-83
2023/01/14 08:12:23;;;;;;;28.55;6.90;;;;;;;5.83;100.00;100601.75;4986835;28;20044;-84
2023/01/14 08:14:48;;;;;;;31.48;7.15;;;;;;;5.86;100.00;100601.03;4981882;28;20018;-83
2023/01/14 08:17:13;;;;;;;22.48;5.55;;;;;;;5.80;100.00;100581.03;4988936;28;20034;-84
2023/01/14 08:19:39;;;;;;;32.53;6.03;;;;;;;5.97;100.00;100582.75;4998034;28;21684;-83
2023/01/14 08:22:04;;;;;;;26.23;5.28;;;;;;;5.84;100.00;100570.00;4988606;28;20061;-83
2023/01/14 08:24:29;;;;;;;34.38;5.93;;;;;;;5.93;100.00;100562.34;4987293;28;20478;-83
2023/01/14 08:26:55;;;;;;;29.08;5.38;;;;;;;5.86;100.00;100540.75;4986624;28;20124;-83
2023/01/14 08:29:20;;;;;;;34.90;7.00;;;;;;;6.00;100.00;100545.09;4983377;28;20054;-84
2023/01/14 08:31:51;;;;;;;20.85;5.15;;;;;;;5.82;100.00;100520.41;4988498;28;20030;-84
2023/01/14 08:34:17;;;;;;;29.58;5.85;;;;;;;5.88;100.00;100541.19;4989570;28;20517;-84
2023/01/14 08:36:43;;;;;;;30.02;5.63;;;;;;;5.95;100.00;100523.94;4997905;28;20026;-84
2023/01/14 08:39:09;;;;;;;24.58;6.00;;;;;;;5.91;100.00;100511.91;4987081;28;20034;-83
2023/01/14 08:41:35;;;;;;;20.98;5.25;;;;;;;5.95;100.00;100506.47;5000993;28;20034;-84
2023/01/14 08:44:01;;;;;;;32.38;7.45;;;;;;;6.01;100.00;100496.69;4977222;28;20495;-85
2023/01/14 08:46:26;;;;;;;23.60;4.68;;;;;;;5.98;100.00;100489.09;4976760;28;20117;-84
2023/01/14 08:49:05;;;;;;;23.52;6.70;;;;;;;5.96;100.00;100474.75;5065669;22;1253054;-74
2023/01/14 08:51:30;;;;;;;14.27;4.70;;;;;;;5.95;100.00;100473.94;5073291;28;20028;-74
2023/01/14 08:53:56;;;;;;;30.85;5.78;;;;;;;5.94;100.00;100477.03;5078067;28;20525;-75
2023/01/14 08:56:22;;;;;;;27.80;5.78;;;;;;;5.98;100.00;100456.53;5067701;28;21460;-74
2023/01/14 08:58:47;;;;;;;21.63;4.68;;;;;;;5.99;100.00;100451.81;5071398;28;20042;-74
2023/01/14 09:01:13;;;;;;;15.60;4.22;;;;;;;6.13;100.00;100449.38;5058113;28;20024;-74
2023/01/14 09:03:40;;;;;;;15.75;4.22;;;;;;;6.00;100.00;100445.88;5071311;28;20036;-74
2023/01/14 09:06:09;;;;;;;22.92;4.40;;;;;;;6.10;100.00;100430.66;5064880;28;20025;-75
2023/01/14 09:17:15;;;;;;;12.90;3.83;;;;;;;6.14;100.00;100405.75;5067713;28;20454;-74
2023/01/14 09:19:46;;;;;;;13.23;4.40;;;;;;;6.08;100.00;100399.66;5068600;28;20112;-74
2023/01/14 09:22:17;;;;;;;14.43;4.38;;;;;;;6.19;100.00;100395.16;5070797;28;20032;-74
2023/01/14 09:24:43;;;;;;;13.10;3.97;;;;;;;6.18;100.00;100392.75;5071111;28;20078;-74
2023/01/14 09:27:08;;;;;;;18.52;4.80;;;;;;;6.20;100.00;100379.28;5075666;28;20023;-74
2023/01/14 09:29:33;;;;;;;13.75;3.65;;;;;;;6.18;100.00;100371.31;5077487;28;20032;-74
2023/01/14 09:31:59;;;;;;;12.65;5.03;;;;;;;6.27;100.00;100358.03;5071364;28;20045;-74
2023/01/14 09:34:24;;;;;;;13.65;4.13;;;;;;;6.22;100.00;100355.53;5081222;28;20403;-74
2023/01/14 09:36:50;;;;;;;21.13;5.63;;;;;;;6.53;100.00;100345.50;5067302;28;20036;-73
2023/01/14 09:39:16;;;;;;;10.10;3.38;;;;;;;6.41;100.00;100340.06;5074107;28;20075;-74
2023/01/14 09:41:50;;;;;;;14.85;5.85;;;;;;;6.33;100.00;100343.88;5060803;28;20028;-75
2023/01/14 09:44:16;;;;;;;12.45;4.90;;;;;;;6.29;100.00;100339.00;5067361;28;20491;-76
2023/01/14 09:46:41;;;;;;;14.85;5.18;;;;;;;6.27;100.00;100330.22;5064728;28;20043;-74
2023/01/14 09:49:09;;;;;;;9.27;3.55;;;;;;;6.38;100.00;100315.78;5047471;28;20044;-73
2023/01/14 09:51:57;;;;;;;15.07;4.53;;;;;;;6.33;100.00;100307.72;5068823;28;20475;-73
2023/01/14 09:54:55;;;;;;;17.52;5.22;;;;;;;6.33;100.00;100302.97;5073101;28;20059;-73
2023/01/14 09:57:33;;;;;;;12.48;5.13;;;;;;;6.39;100.00;100297.91;5048240;28;20028;-73
2023/01/14 10:00:00;;;;;;;14.88;5.88;;;;;;;6.43;100.00;100291.28;5055097;28;20052;-73
2023/01/14 10:02:50;;;;;;;11.07;3.65;;;;;;;6.40;100.00;100286.44;5053523;28;20028;-73
2023/01/14 10:05:28;;;;;;;9.48;4.40;;;;;;;6.45;100.00;100293.69;5034468;28;20032;-73
2023/01/14 10:07:56;;;;;;;10.40;4.25;;;;;;;6.50;100.00;100276.72;5053960;28;20028;-73
2023/01/14 10:10:26;;;;;;;11.65;4.15;;;;;;;6.50;100.00;100260.84;5042268;28;20472;-73
2023/01/14 10:12:55;;;;;;;12.45;4.82;;;;;;;6.43;100.00;100255.16;5054032;28;20029;-74
2023/01/14 10:15:29;;;;;;;13.05;4.95;;;;;;;6.44;100.00;100239.25;5043752;28;20938;-73
2023/01/14 10:18:01;;;;;;;25.88;5.60;;;;;;;6.48;100.00;100215.91;5062909;28;20032;-73
2023/01/14 10:21:00;;;;;;;12.65;4.30;;;;;;;6.48;100.00;100206.78;5048759;28;20396;-73
2023/01/14 10:23:28;;;;;;;12.77;4.30;;;;;;;6.49;100.00;100192.53;5043645;28;20036;-73
2023/01/14 10:25:55;;;;;;;15.60;4.57;;;;;;;6.51;100.00;100175.44;5034493;28;20032;-73
2023/01/14 10:28:24;;;;;;;8.18;4.43;;;;;;;6.56;100.00;100169.59;5052758;28;20076;-75
2023/01/14 10:30:51;;;;;;;9.55;4.55;;;;;;;6.63;100.00;100168.94;5061887;28;20049;-75
2023/01/14 10:33:19;;;;;;;10.30;4.38;;;;;;;6.61;100.00;100155.38;5042767;28;20020;-74
2023/01/14 10:36:11;;;;;;;7.50;3.60;;;;;;;6.58;100.00;100136.69;5055840;28;20036;-75
2023/01/14 10:38:40;;;;;;;13.77;4.30;;;;;;;6.64;100.00;100106.56;5053684;28;20029;-75
2023/01/14 10:41:07;;;;;;;9.00;3.75;;;;;;;6.66;100.00;100107.00;5055329;28;20020;-74
2023/01/14 10:43:35;;;;;;;10.27;3.65;;;;;;;6.61;100.00;100074.75;5055977;28;20067;-74
2023/01/14 10:46:01;;;;;;;9.35;3.65;;;;;;;6.67;100.00;100070.47;5060262;28;20496;-74
2023/01/14 10:48:33;;;;;;;8.13;4.70;;;;;;;6.75;100.00;100060.28;5062243;28;20040;-74
2023/01/14 10:51:35;;;;;;;12.40;4.23;;;;;;;6.80;100.00;100048.03;5059884;28;20455;-74
2023/01/14 10:54:15;;;;;;;8.82;3.40;;;;;;;6.87;100.00;100039.81;5050206;28;20037;-73
2023/01/14 10:56:52;;;;;;;12.13;4.45;;;;;;;6.87;100.00;100023.94;5063155;28;20287;-75
2023/01/14 10:59:36;;;;;;;14.10;3.25;;;;;;;6.90;100.00;100011.25;5057972;28;20592;-74
2023/01/14 11:02:01;;;;;;;12.63;3.42;;;;;;;6.89;100.00;100004.06;5045642;28;20033;-74
2023/01/14 11:04:30;;;;;;;5.97;3.30;;;;;;;6.92;100.00;99995.78;5061152;28;20035;-74
2023/01/14 11:06:56;;;;;;;9.63;3.60;;;;;;;6.90;100.00;99977.88;5054206;28;20101;-75
2023/01/14 11:09:27;;;;;;;7.93;3.47;;;;;;;6.94;100.00;99969.59;5053947;28;20036;-74
2023/01/14 11:11:53;;;;;;;8.23;3.00;;;;;;;6.98;100.00;99964.84;5054909;28;20111;-74
2023/01/14 11:14:27;;;;;;;9.15;3.22;;;;;;;6.92;100.00;99954.06;5059971;28;20039;-74
2023/01/14 11:16:53;;;;;;;10.35;3.55;;;;;;;6.97;100.00;99941.78;5039391;28;20061;-74
2023/01/14 11:19:20;;;;;;;10.90;3.63;;;;;;;7.02;100.00;99929.53;5061257;28;20067;-75
2023/01/14 11:21:49;;;;;;;11.55;3.20;;;;;;;6.99;100.00;99914.41;5036122;28;20037;-74
2023/01/14 11:24:37;;;;;;;10.55;4.45;;;;;;;7.07;100.00;99895.81;5039652;28;20055;-75
2023/01/14 11:27:21;;;;;;;12.55;3.58;;;;;;;7.06;100.00;99888.63;5038549;28;20062;-74
2023/01/14 11:29:53;;;;;;;7.20;2.80;;;;;;;7.04;100.00;99880.69;5061757;28;20029;-74
2023/01/14 11:32:24;;;;;;;5.15;3.53;;;;;;;7.09;100.00;99860.06;5057427;28;20021;-74
2023/01/14 11:35:01;;;;;;;12.50;4.53;;;;;;;7.13;100.00;99853.38;5043776;28;20075;-76
2023/01/14 11:37:35;;;;;;;7.47;2.90;;;;;;;7.19;100.00;99839.09;5044048;28;20472;-73
2023/01/14 11:40:02;;;;;;;10.90;3.75;;;;;;;7.19;100.00;99834.34;5061893;28;20516;-74
2023/01/14 11:42:31;;;;;;;7.18;3.25;;;;;;;7.21;100.00;99833.94;5055776;28;20483;-74
2023/01/14 11:45:16;;;;;;;8.23;2.95;;;;;;;7.25;100.00;99832.00;5054047;28;20028;-76
2023/01/14 11:47:52;;;;;;;9.77;3.25;;;;;;;7.23;100.00;99834.38;5036105;28;20500;-74
2023/01/14 11:50:26;;;;;;;10.38;3.20;;;;;;;7.26;100.00;99825.28;5036294;28;20036;-73
2023/01/14 11:53:04;;;;;;;9.40;3.35;;;;;;;7.30;100.00;99806.63;5030843;28;20040;-76
2023/01/14 11:55:33;;;;;;;8.70;4.50;;;;;;;7.35;100.00;99786.00;5057021;28;20036;-75